Nearby METAR Reports

 

YMEN - Melbourne/Essendon, Australia
Distance from station: WNW 102km
Updated: 23/05/2022 05:00
Overcast
Overcast
 Wind from calm
Wind: Calm
Temperature: 10°C
Dew Point: 9°C
Humidity: 94%
Barometer: 1029 hPa
Clouds: Overcast
Visibility: 10 km
Cloud details: Overcast 274 m
2022/05/22 19:00 YMEN 221900Z AUTO 00000KT 9999 // OVC009 10/09 Q1029
YMML - Melbourne Intl A, Australia
Distance from station: WNW 111km
Updated: 23/05/2022 05:00
Mostly cloudy
Mostly cloudy
 Wind from N
Wind: N 4 km/h
Temperature: 9°C
Dew Point: 8°C
Humidity: 94%
Barometer: 1029 hPa
Clouds: Mostly cloudy
Visibility: 10 km
Cloud details: Mostly cloudy 183 m
2022/05/22 19:00 YMML 221900Z 01002KT 9999 BKN006 09/08 Q1029
 
YMAV - Avalon Airport, Australia
Distance from station: W 135km
Updated: 23/05/2022 05:00
Overcast
Overcast
 Wind from NW
Wind: NW 7 km/h
Temperature: 4°C
Wind Chill: 2°C
Dew Point: 4°C
Humidity: 100%
Barometer: 1028 hPa
Clouds: Overcast
Visibility: 6 km
Cloud details: Overcast 335 m
2022/05/22 19:00 YMAV 221900Z AUTO 32004KT 6000 // OVC011 04/04 Q1028
YWGT - Wangaratta Arp, Australia
Distance from station: N 172km
Updated: 23/05/2022 05:00
Partly cloudy
Partly cloudy
 Wind from S
Wind: S 4 km/h
Temperature: 1°C
Dew Point: 1°C
Humidity: 100%
Barometer: 1028 hPa
Clouds: Partly cloudy
Visibility: 2 km
Cloud details: Partly cloudy 61 m
2022/05/22 19:00 YWGT 221900Z AUTO 17002KT 1900 // SCT002 01/01 Q1028